Portada
METAR-TAF:

METAR-TAF

Aeropuertos :

Chengdu, China

Aeropuerto Internacional de Chengdú-Shuangliu

latitud: 30-40N, longitud: 104-01E, altitud: 508 m

Observación

El informe se hizo hace 1 hora y 7 minutos, a las 22:00 UTC
Viento 2 kt del norte-noroeste
Temperatura 15°C
Humedad 77%
Presión 1022 hPa
Visibilidad 10 km o más
Nubes dispersas a una altura de 5000 ft

METAR: ZUUU 172200Z 34001MPS 9999 SCT050 15/11 Q1022 NOSIG

Hora: 07:07 (23:07 UTC)

Pronóstico

El informe se hizo hace 9 horas y 6 minutos, a las 14:01 UTC
Pronóstico válido del 17 a las 18 UTC al 18 a las 18 UTC
Viento 6 kt del norte-noroeste
Visibilidad: 3500 m
Escasas nubes a una altura de 800 ft
Nubes dispersas a una altura de 4000 ft
neblina
Temporalmente
del 17 a las 18 UTC al 17 a las 24 UTC
lluvia ligera

TAF: ZUUU 171401Z 1718/1818 33003MPS 3500 BR FEW008 SCT040 TX14/1805Z TN10/1722Z TEMPO 1718/1724 -RA

Observaciones y pronósticos meteorológicos de más de 4000 aeropuertos (mensajes METAR y TAF).

Los puntos amarillos y rojos representan las estaciones disponibles.

Ponga el ratón en el punto deseado para ver el nombre de la estación.

Haga clic para ver las observaciones y los pronósticos meteorológicos.

Para cambiar el mapa : haga clic en los botones verdes con una cruz de color negro para hacer un zoom, en el botón verde con un guión para alejar o en las flechas verdes para mapas adyacentes.


METAR-TAF: